Time;durP1;ratioP1;P1;durP2;ratioP2;P2;SDS_P1;SDS_P2;PMS_P1;PMS_P2;Temp;Humidity;BMP_temperature;BMP_pressure;BME280_temperature;BME280_humidity;BME280_pressure;Samples;Min_cycle;Max_cycle;Signal;HPM_P1;HPM_P2
2022/12/01 00:01:46;;;;;;;32.00;16.27;;;9.00;99.90;;;;;;5010666;28;21025;-60
2022/12/01 00:04:13;;;;;;;47.97;19.93;;;;;;;;;;5023554;28;20507;-61
2022/12/01 00:06:40;;;;;;;32.57;15.93;;;8.80;99.90;;;;;;5022424;28;20496;-61
2022/12/01 00:11:54;;;;;;;50.73;18.53;;;8.70;99.90;;;;;;5011646;28;20480;-61
2022/12/01 00:14:20;;;;;;;57.83;20.90;;;8.80;99.90;;;;;;5011189;28;20492;-61
2022/12/01 00:16:47;;;;;;;41.93;17.03;;;8.80;99.90;;;;;;5016337;28;20489;-61
2022/12/01 00:19:14;;;;;;;54.43;21.13;;;8.80;99.90;;;;;;5020612;28;21406;-60
2022/12/01 00:21:40;;;;;;;39.50;18.30;;;8.70;99.90;;;;;;5017730;28;20774;-59
2022/12/01 00:24:10;;;;;;;52.40;20.70;;;8.80;99.90;;;;;;5014701;28;20511;-60
2022/12/01 00:26:38;;;;;;;37.20;15.73;;;8.80;99.90;;;;;;5022862;28;22074;-60
2022/12/01 00:29:04;;;;;;;43.47;18.00;;;8.60;99.90;;;;;;5020855;28;20469;-59
2022/12/01 00:31:32;;;;;;;32.30;15.93;;;;;;;;;;5012213;28;20488;-59
2022/12/01 00:33:58;;;;;;;36.63;17.23;;;8.50;99.90;;;;;;5011561;28;20481;-60
2022/12/01 00:36:25;;;;;;;36.10;16.63;;;8.40;99.90;;;;;;4999595;28;20813;-60
2022/12/01 00:38:53;;;;;;;31.30;14.87;;;;;;;;;;5018799;28;20531;-60
2022/12/01 00:41:22;;;;;;;40.90;18.20;;;8.40;99.90;;;;;;5046464;28;20620;-60
2022/12/01 00:43:49;;;;;;;40.07;17.13;;;8.40;99.90;;;;;;5027898;28;20480;-60
2022/12/01 00:46:16;;;;;;;44.83;19.00;;;8.30;99.90;;;;;;5017810;28;20873;-60
2022/12/01 00:48:42;;;;;;;42.53;17.93;;;8.30;99.90;;;;;;5021515;28;20513;-60
2022/12/01 00:51:09;;;;;;;54.67;21.50;;;8.20;99.90;;;;;;5011881;28;20476;-59
2022/12/01 00:53:36;;;;;;;36.73;14.90;;;8.20;99.90;;;;;;5018919;28;20472;-60
2022/12/01 00:56:03;;;;;;;42.43;18.40;;;8.20;99.90;;;;;;5020707;28;20517;-60
2022/12/01 00:58:31;;;;;;;34.47;15.57;;;8.20;99.90;;;;;;5016723;28;20480;-60
2022/12/01 01:00:58;;;;;;;41.10;17.67;;;8.30;99.90;;;;;;5006123;28;20489;-59
2022/12/01 01:03:25;;;;;;;33.83;15.27;;;8.30;99.90;;;;;;5016224;28;20592;-60
2022/12/01 01:05:52;;;;;;;46.50;17.40;;;8.30;99.90;;;;;;5024918;28;21070;-60
2022/12/01 01:08:19;;;;;;;50.23;19.73;;;8.30;99.90;;;;;;5010922;28;20477;-60
2022/12/01 01:10:47;;;;;;;32.13;14.93;;;8.20;99.90;;;;;;5010932;28;20473;-59
2022/12/01 01:13:15;;;;;;;43.80;18.17;;;8.30;99.90;;;;;;5017038;28;20479;-60
2022/12/01 01:15:43;;;;;;;41.13;15.93;;;8.20;99.90;;;;;;5034054;28;21372;-60
2022/12/01 01:18:11;;;;;;;57.47;22.00;;;8.10;99.90;;;;;;5014264;28;20480;-60
2022/12/01 01:20:38;;;;;;;36.93;15.67;;;8.20;99.90;;;;;;5014203;28;20488;-60
2022/12/01 01:23:04;;;;;;;38.83;14.77;;;8.20;99.90;;;;;;5012483;28;20477;-60
2022/12/01 01:25:32;;;;;;;37.37;16.63;;;8.20;99.90;;;;;;5008898;28;20489;-60
2022/12/01 01:27:58;;;;;;;30.23;10.63;;;8.10;99.90;;;;;;5026240;28;21142;-61
2022/12/01 01:30:25;;;;;;;28.83;13.50;;;8.00;99.90;;;;;;5025448;28;20481;-61
2022/12/01 01:32:53;;;;;;;32.30;12.93;;;8.10;99.90;;;;;;5014899;28;20883;-60
2022/12/01 01:35:20;;;;;;;49.10;15.87;;;8.10;99.90;;;;;;5011222;28;20480;-61
2022/12/01 01:37:46;;;;;;;49.87;14.90;;;8.00;99.90;;;;;;5013414;28;20484;-60
2022/12/01 01:40:13;;;;;;;50.83;19.20;;;8.00;99.90;;;;;;4997315;28;20700;-61
2022/12/01 01:42:40;;;;;;;36.83;15.10;;;8.00;99.90;;;;;;5019050;28;20480;-61
2022/12/01 01:45:20;;;;;;;28.00;13.03;;;8.00;99.90;;;;;;5029781;28;20995;-60
2022/12/01 01:47:48;;;;;;;32.00;13.87;;;8.00;99.90;;;;;;5002079;28;20898;-61
2022/12/01 01:50:20;;;;;;;43.37;16.63;;;8.10;99.90;;;;;;5028932;28;20485;-60
2022/12/01 01:52:51;;;;;;;30.03;13.77;;;8.10;99.90;;;;;;5020662;28;20485;-60
2022/12/01 01:55:18;;;;;;;35.97;14.13;;;8.00;99.90;;;;;;5013074;28;20485;-60
2022/12/01 01:57:45;;;;;;;34.70;13.53;;;8.10;99.90;;;;;;5026485;28;20488;-60
2022/12/01 02:00:15;;;;;;;39.40;16.07;;;8.10;99.90;;;;;;5031367;28;20857;-60
2022/12/01 02:02:43;;;;;;;25.40;12.93;;;8.10;99.90;;;;;;5028547;28;20477;-60
2022/12/01 02:05:13;;;;;;;39.63;13.87;;;8.10;99.90;;;;;;5017989;28;20481;-60
2022/12/01 02:07:42;;;;;;;32.10;14.90;;;8.10;99.90;;;;;;5025511;28;20484;-61
2022/12/01 02:10:13;;;;;;;45.43;17.93;;;8.10;99.90;;;;;;5034517;28;21084;-60
2022/12/01 02:13:05;;;;;;;20.67;10.70;;;7.90;99.90;;;;;;5033356;28;20510;-60
2022/12/01 02:15:37;;;;;;;35.53;12.90;;;8.00;99.90;;;;;;5018107;28;20488;-60
2022/12/01 02:18:20;;;;;;;29.67;14.13;;;8.00;99.90;;;;;;5013761;28;20481;-60
2022/12/01 02:21:29;;;;;;;29.27;11.00;;;8.00;99.90;;;;;;5014398;28;20480;-60
2022/12/01 02:24:42;;;;;;;27.67;10.77;;;7.80;99.90;;;;;;4971226;28;20915;-60
2022/12/01 02:27:19;;;;;;;35.60;14.60;;;7.60;99.90;;;;;;5027166;28;21054;-60
2022/12/01 02:30:05;;;;;;;26.23;11.50;;;7.70;99.90;;;;;;5034812;28;20799;-61
2022/12/01 02:32:43;;;;;;;29.07;10.83;;;7.60;99.90;;;;;;5014060;28;20476;-61
2022/12/01 02:35:14;;;;;;;45.70;16.80;;;7.60;99.90;;;;;;5033912;28;20824;-61
2022/12/01 02:37:47;;;;;;;32.13;12.70;;;7.50;99.90;;;;;;5033823;28;20499;-60
2022/12/01 02:40:20;;;;;;;44.47;15.83;;;7.60;99.90;;;;;;5034413;28;20989;-60
2022/12/01 02:43:00;;;;;;;25.73;11.50;;;7.70;99.90;;;;;;5032951;28;20483;-60
2022/12/01 02:45:35;;;;;;;24.53;9.43;;;7.60;99.90;;;;;;5022869;28;20480;-60
2022/12/01 02:48:07;;;;;;;37.00;13.60;;;7.60;99.90;;;;;;5033334;28;20864;-60
2022/12/01 02:50:35;;;;;;;21.90;8.90;;;7.40;99.90;;;;;;5017077;28;20483;-60
2022/12/01 02:53:05;;;;;;;30.23;12.60;;;7.40;99.90;;;;;;5040759;28;20488;-60
2022/12/01 02:55:31;;;;;;;48.47;12.57;;;7.40;99.90;;;;;;5023038;28;20488;-60
2022/12/01 02:57:58;;;;;;;28.93;11.80;;;7.30;99.90;;;;;;5033884;28;21047;-61
2022/12/01 03:00:25;;;;;;;27.40;11.90;;;7.30;99.90;;;;;;5021852;28;20476;-60
2022/12/01 03:03:23;;;;;;;27.00;11.20;;;7.30;99.90;;;;;;5033704;28;20480;-60
2022/12/01 03:06:00;;;;;;;40.37;15.87;;;7.30;99.90;;;;;;5029250;28;20472;-60
2022/12/01 03:08:43;;;;;;;22.80;11.07;;;7.30;99.90;;;;;;5022022;28;20531;-60
2022/12/01 03:11:25;;;;;;;30.40;11.17;;;7.00;99.90;;;;;;5029660;28;20941;-60
2022/12/01 03:14:00;;;;;;;35.10;12.47;;;7.20;99.90;;;;;;5030816;28;20531;-60
2022/12/01 03:16:33;;;;;;;23.53;11.20;;;7.10;99.90;;;;;;5036192;28;20479;-60
2022/12/01 03:19:07;;;;;;;28.07;12.50;;;7.20;99.90;;;;;;5007959;28;20637;-59
2022/12/01 03:21:39;;;;;;;24.50;9.97;;;7.20;99.90;;;;;;5016582;28;20488;-60
2022/12/01 03:24:11;;;;;;;40.20;14.47;;;7.30;99.90;;;;;;5027637;28;20559;-60
2022/12/01 03:26:41;;;;;;;20.37;10.00;;;7.30;99.90;;;;;;5029631;28;20551;-60
2022/12/01 03:29:11;;;;;;;42.00;13.40;;;7.30;99.90;;;;;;5037062;28;20472;-60
2022/12/01 03:31:43;;;;;;;34.30;15.33;;;7.40;99.90;;;;;;5036917;28;20822;-60
2022/12/01 03:34:13;;;;;;;52.93;17.70;;;;;;;;;;5037313;28;20512;-60
2022/12/01 03:36:45;;;;;;;29.37;12.20;;;7.40;99.90;;;;;;5036412;28;20519;-60
2022/12/01 03:39:17;;;;;;;43.27;15.80;;;7.30;99.90;;;;;;5033037;28;20488;-60
2022/12/01 03:41:48;;;;;;;28.13;11.43;;;7.30;99.90;;;;;;5036784;28;20835;-60
2022/12/01 03:44:18;;;;;;;44.13;16.60;;;7.30;99.90;;;;;;5035780;28;20853;-60
2022/12/01 03:46:49;;;;;;;36.00;13.83;;;7.40;99.90;;;;;;5037334;28;20484;-60
2022/12/01 03:49:18;;;;;;;41.73;15.03;;;7.50;99.90;;;;;;5036664;28;20488;-60
2022/12/01 03:51:55;;;;;;;34.37;13.90;;;7.50;99.90;;;;;;5036882;28;20492;-60
2022/12/01 03:54:28;;;;;;;37.07;13.60;;;7.60;99.90;;;;;;5035847;28;20583;-60
2022/12/01 03:56:59;;;;;;;28.40;11.50;;;7.60;99.90;;;;;;5036009;28;20526;-60
2022/12/01 03:59:28;;;;;;;34.03;14.03;;;7.60;99.90;;;;;;5036889;28;20468;-59
2022/12/01 04:01:55;;;;;;;26.83;11.90;;;7.60;99.90;;;;;;5037868;28;20487;-60
2022/12/01 04:04:23;;;;;;;25.80;11.40;;;7.60;99.90;;;;;;5036859;28;20499;-60
2022/12/01 04:06:50;;;;;;;43.30;15.90;;;7.70;99.90;;;;;;5032813;28;20488;-60
2022/12/01 04:09:17;;;;;;;37.40;14.77;;;7.70;99.90;;;;;;5036909;28;20476;-60
2022/12/01 04:14:28;;;;;;;26.93;12.07;;;7.80;99.90;;;;;;5022473;28;20603;-60
2022/12/01 04:16:55;;;;;;;36.40;14.70;;;7.80;99.90;;;;;;5007576;28;21346;-60
2022/12/01 04:19:23;;;;;;;47.93;15.43;;;7.80;99.90;;;;;;5037069;28;20484;-60
2022/12/01 04:21:50;;;;;;;33.37;12.80;;;7.80;99.90;;;;;;5036874;28;20485;-60
2022/12/01 04:24:17;;;;;;;46.03;16.60;;;7.80;99.90;;;;;;5036836;28;20505;-60
2022/12/01 04:26:44;;;;;;;35.17;12.23;;;;;;;;;;5022700;28;20482;-60
2022/12/01 04:29:14;;;;;;;36.67;14.03;;;7.70;99.90;;;;;;5016335;28;20600;-60
2022/12/01 04:31:41;;;;;;;30.73;12.57;;;7.80;99.90;;;;;;5016898;28;20639;-60
2022/12/01 04:34:09;;;;;;;60.77;17.90;;;7.70;99.90;;;;;;5016826;28;20885;-60
2022/12/01 04:36:37;;;;;;;31.73;13.10;;;7.70;99.90;;;;;;5015633;28;20473;-59
2022/12/01 04:39:04;;;;;;;44.93;16.10;;;7.80;99.90;;;;;;5015719;28;20536;-60
2022/12/01 04:41:31;;;;;;;28.43;12.60;;;7.80;99.90;;;;;;5017846;28;20469;-60
2022/12/01 04:43:58;;;;;;;35.47;13.37;;;7.70;99.90;;;;;;5019614;28;20475;-59
2022/12/01 04:46:25;;;;;;;33.83;13.23;;;7.60;99.90;;;;;;5015625;28;20469;-60
2022/12/01 04:48:52;;;;;;;34.50;12.73;;;7.50;99.90;;;;;;5027732;28;20488;-60
2022/12/01 04:51:20;;;;;;;60.80;19.97;;;7.50;99.90;;;;;;5035514;28;21618;-60
2022/12/01 04:53:48;;;;;;;42.83;16.00;;;7.50;99.90;;;;;;5036617;28;20480;-60
2022/12/01 04:56:14;;;;;;;47.70;16.87;;;7.40;99.90;;;;;;5032391;28;20477;-60
2022/12/01 04:58:41;;;;;;;32.70;14.33;;;7.40;99.90;;;;;;5024710;28;20485;-59
2022/12/01 05:01:12;;;;;;;62.23;21.23;;;7.40;99.90;;;;;;5019262;28;20492;-60
2022/12/01 05:03:39;;;;;;;35.50;14.27;;;7.50;99.90;;;;;;5016103;28;20496;-60
2022/12/01 05:06:09;;;;;;;49.83;18.77;;;7.50;99.90;;;;;;5027327;28;20484;-60
2022/12/01 05:08:35;;;;;;;40.10;16.60;;;7.50;99.90;;;;;;5036272;28;20483;-60
2022/12/01 05:11:06;;;;;;;39.43;16.57;;;7.60;99.90;;;;;;5036497;28;20476;-60
2022/12/01 05:13:33;;;;;;;46.60;17.40;;;7.60;99.90;;;;;;5034449;28;20511;-60
2022/12/01 05:16:04;;;;;;;42.50;17.30;;;;;;;;;;5030395;28;20485;-60
2022/12/01 05:18:31;;;;;;;44.00;15.57;;;7.50;99.90;;;;;;5035641;28;20468;-60
2022/12/01 05:20:57;;;;;;;34.97;14.50;;;7.50;99.90;;;;;;5035981;28;20491;-59
2022/12/01 05:23:24;;;;;;;46.97;18.03;;;7.50;99.90;;;;;;5023685;28;20990;-60
2022/12/01 05:25:51;;;;;;;42.97;18.47;;;7.50;99.90;;;;;;5019877;28;20246;-60
2022/12/01 05:28:19;;;;;;;48.23;18.77;;;7.50;99.90;;;;;;5016698;28;20768;-60
2022/12/01 05:30:46;;;;;;;39.17;15.47;;;;;;;;;;5015247;28;20477;-60
2022/12/01 05:33:13;;;;;;;55.90;23.73;;;7.40;99.90;;;;;;5014778;28;20481;-60
2022/12/01 05:35:40;;;;;;;45.07;18.20;;;7.40;99.90;;;;;;5021733;28;20508;-60
2022/12/01 05:38:07;;;;;;;54.83;18.83;;;7.30;99.90;;;;;;5029657;28;20480;-60
2022/12/01 05:40:34;;;;;;;37.20;15.70;;;7.30;99.90;;;;;;5033971;28;20488;-60
2022/12/01 05:43:00;;;;;;;48.33;17.90;;;7.30;99.90;;;;;;5033195;28;20991;-61
2022/12/01 05:45:29;;;;;;;40.30;17.37;;;7.20;99.90;;;;;;5032856;28;21015;-61
2022/12/01 05:47:55;;;;;;;40.33;16.07;;;7.30;99.90;;;;;;5033972;28;20484;-61
2022/12/01 05:50:22;;;;;;;44.37;19.83;;;7.30;99.90;;;;;;5034003;28;20494;-60
2022/12/01 05:52:50;;;;;;;43.13;16.70;;;;;;;;;;5038316;28;20831;-61
2022/12/01 05:55:17;;;;;;;59.00;21.23;;;7.30;99.90;;;;;;5037738;28;20492;-61
2022/12/01 05:57:44;;;;;;;41.27;16.97;;;7.30;99.90;;;;;;5036793;28;20862;-61
2022/12/01 06:00:12;;;;;;;47.60;18.80;;;7.30;99.90;;;;;;5037655;28;20598;-61
2022/12/01 06:02:41;;;;;;;33.73;16.20;;;7.30;99.90;;;;;;5038263;28;20496;-61
2022/12/01 06:05:09;;;;;;;60.27;20.23;;;7.30;99.90;;;;;;5036318;28;20491;-60
2022/12/01 06:07:38;;;;;;;33.43;14.97;;;7.40;99.90;;;;;;5036319;28;20502;-61
2022/12/01 06:10:07;;;;;;;62.07;21.87;;;7.40;99.90;;;;;;5010714;28;20469;-61
2022/12/01 06:12:34;;;;;;;36.00;16.63;;;7.40;99.90;;;;;;5018941;28;20569;-61
2022/12/01 06:15:01;;;;;;;38.60;17.30;;;7.50;99.90;;;;;;5023021;28;20821;-61
2022/12/01 06:17:28;;;;;;;38.43;16.20;;;7.50;99.90;;;;;;5033531;28;20479;-61
2022/12/01 06:19:56;;;;;;;40.27;16.37;;;7.40;99.90;;;;;;5035087;28;20523;-61
2022/12/01 06:22:22;;;;;;;62.93;19.10;;;7.40;99.90;;;;;;5034875;28;20495;-61
2022/12/01 06:24:49;;;;;;;37.47;17.70;;;7.40;99.90;;;;;;5035133;28;20492;-61
2022/12/01 06:27:16;;;;;;;54.20;19.50;;;7.30;99.90;;;;;;5033634;28;20472;-61
2022/12/01 06:29:43;;;;;;;42.23;17.47;;;7.40;99.90;;;;;;5034571;28;20480;-60
2022/12/01 06:32:09;;;;;;;45.57;18.40;;;7.30;99.90;;;;;;5031973;28;20914;-61
2022/12/01 06:34:36;;;;;;;36.73;17.70;;;7.40;99.90;;;;;;5034997;28;20514;-61
2022/12/01 06:37:04;;;;;;;40.57;16.43;;;7.50;99.90;;;;;;5006200;28;20477;-61
2022/12/01 06:39:31;;;;;;;46.50;21.67;;;7.40;99.90;;;;;;5014693;28;20473;-61
2022/12/01 06:41:58;;;;;;;42.47;19.07;;;7.30;99.90;;;;;;5013306;28;21012;-61
2022/12/01 06:44:24;;;;;;;43.27;19.70;;;7.20;99.90;;;;;;5016189;28;20473;-61
2022/12/01 06:46:52;;;;;;;46.37;18.83;;;7.10;99.90;;;;;;5017776;28;20473;-61
2022/12/01 06:49:19;;;;;;;45.13;19.20;;;7.10;99.90;;;;;;5010320;28;20488;-61
2022/12/01 06:51:46;;;;;;;40.00;18.47;;;7.00;99.90;;;;;;5036983;28;20480;-61
2022/12/01 06:54:15;;;;;;;64.93;22.10;;;7.10;99.90;;;;;;5037148;28;20483;-61
2022/12/01 06:56:42;;;;;;;41.67;18.03;;;7.00;99.90;;;;;;5028358;28;20491;-61
2022/12/01 06:59:09;;;;;;;49.77;19.37;;;7.00;99.90;;;;;;5024951;28;20496;-61
2022/12/01 07:01:36;;;;;;;40.40;16.70;;;7.10;99.90;;;;;;5028014;28;20484;-60
2022/12/01 07:04:03;;;;;;;52.50;18.37;;;7.00;99.90;;;;;;5027356;28;20492;-61
2022/12/01 07:06:30;;;;;;;51.43;22.37;;;7.00;99.90;;;;;;5025988;28;20488;-61
2022/12/01 07:08:57;;;;;;;43.37;17.50;;;7.00;99.90;;;;;;5031686;28;20492;-61
2022/12/01 07:11:25;;;;;;;38.83;17.40;;;6.90;99.90;;;;;;5036260;28;20476;-60
2022/12/01 07:13:55;;;;;;;52.43;16.87;;;6.90;99.90;;;;;;5037844;28;20481;-60
2022/12/01 07:16:22;;;;;;;27.10;9.50;;;6.60;99.90;;;;;;5036038;28;20490;-60
2022/12/01 07:18:49;;;;;;;51.40;22.30;;;6.50;99.90;;;;;;5037880;28;20571;-60
2022/12/01 07:21:16;;;;;;;39.33;14.47;;;6.30;99.90;;;;;;5037145;28;20484;-60
2022/12/01 07:23:43;;;;;;;20.57;10.30;;;6.20;99.90;;;;;;5038258;28;20484;-60
2022/12/01 07:26:11;;;;;;;30.63;11.63;;;6.20;99.90;;;;;;5027888;28;20492;-60
2022/12/01 07:28:39;;;;;;;43.77;18.67;;;6.10;99.90;;;;;;5030423;28;20481;-61
2022/12/01 07:31:08;;;;;;;61.03;22.07;;;6.20;99.90;;;;;;5022326;28;20456;-61
2022/12/01 07:33:35;;;;;;;41.80;15.60;;;6.10;99.90;;;;;;5018048;28;20495;-60
2022/12/01 07:36:03;;;;;;;47.33;18.97;;;6.20;99.90;;;;;;5035616;28;20488;-61
2022/12/01 07:38:30;;;;;;;57.97;21.20;;;6.20;99.90;;;;;;5036076;28;20476;-61
2022/12/01 07:41:02;;;;;;;39.57;16.70;;;6.20;99.90;;;;;;5037493;28;20481;-60
2022/12/01 07:43:29;;;;;;;44.97;17.47;;;6.10;99.90;;;;;;5029127;28;20581;-60
2022/12/01 07:46:02;;;;;;;51.87;17.73;;;6.20;99.90;;;;;;5033209;28;20508;-60
2022/12/01 07:48:29;;;;;;;56.73;14.97;;;6.20;99.90;;;;;;5038286;28;20495;-60
2022/12/01 07:50:56;;;;;;;46.47;18.00;;;6.20;99.90;;;;;;5037735;28;20480;-60
2022/12/01 07:53:24;;;;;;;48.30;17.50;;;6.30;99.90;;;;;;5039152;28;20824;-60
2022/12/01 07:55:50;;;;;;;45.10;17.10;;;6.30;99.90;;;;;;5038585;28;20495;-60
2022/12/01 07:58:17;;;;;;;68.57;24.23;;;6.30;99.90;;;;;;5038010;28;20472;-60
2022/12/01 08:00:44;;;;;;;56.53;19.13;;;6.30;99.90;;;;;;5040204;28;21185;-60
2022/12/01 08:03:13;;;;;;;66.90;19.00;;;6.30;99.90;;;;;;5040731;28;20496;-60
2022/12/01 08:05:39;;;;;;;40.20;17.90;;;6.30;99.90;;;;;;5039560;28;20499;-60
2022/12/01 08:08:06;;;;;;;64.60;21.07;;;6.30;99.90;;;;;;5037380;28;20476;-60
2022/12/01 08:10:33;;;;;;;52.97;18.13;;;6.30;99.90;;;;;;5035794;28;20510;-60
2022/12/01 08:13:00;;;;;;;62.20;19.27;;;6.30;99.90;;;;;;5023393;28;20492;-60
2022/12/01 08:15:26;;;;;;;59.10;19.17;;;6.30;99.90;;;;;;5029687;28;20484;-60
2022/12/01 08:17:53;;;;;;;59.33;18.87;;;5.00;99.90;;;;;;5040045;28;20682;-60
2022/12/01 08:20:21;;;;;;;60.73;23.90;;;6.50;99.90;;;;;;5039554;28;21413;-60
2022/12/01 08:22:48;;;;;;;45.23;18.63;;;6.60;99.90;;;;;;5036107;28;20491;-59
2022/12/01 08:25:15;;;;;;;53.90;17.07;;;6.50;99.90;;;;;;5037714;28;20843;-60
2022/12/01 08:27:42;;;;;;;40.50;17.30;;;6.60;99.90;;;;;;5034771;28;20545;-61
2022/12/01 08:30:09;;;;;;;42.07;18.20;;;6.70;99.90;;;;;;5036641;28;20862;-60
2022/12/01 08:32:36;;;;;;;42.37;17.17;;;6.70;99.90;;;;;;5036566;28;20471;-60
2022/12/01 08:35:03;;;;;;;53.20;20.07;;;6.60;99.90;;;;;;5027800;28;20492;-60
2022/12/01 08:37:31;;;;;;;46.50;19.43;;;6.50;99.90;;;;;;5035433;28;20492;-60
2022/12/01 08:39:58;;;;;;;52.77;18.90;;;6.40;99.90;;;;;;5034551;28;20864;-60
2022/12/01 08:42:25;;;;;;;44.03;16.27;;;6.40;99.90;;;;;;5036197;28;20480;-61
2022/12/01 08:44:51;;;;;;;63.10;22.13;;;6.50;99.90;;;;;;5035218;28;20488;-60
2022/12/01 08:47:18;;;;;;;62.53;20.67;;;6.50;99.90;;;;;;5033695;28;20873;-60
2022/12/01 08:49:45;;;;;;;56.90;21.43;;;6.40;99.90;;;;;;5034945;28;20517;-60
2022/12/01 08:52:11;;;;;;;52.57;19.03;;;6.50;99.90;;;;;;5035591;28;20487;-61
2022/12/01 08:54:39;;;;;;;62.40;18.20;;;6.60;99.90;;;;;;5035162;28;20491;-60
2022/12/01 08:57:07;;;;;;;53.10;21.10;;;6.50;99.90;;;;;;5033320;28;20578;-60
2022/12/01 08:59:33;;;;;;;45.07;17.20;;;6.60;99.90;;;;;;5036435;28;20464;-60
2022/12/01 09:02:00;;;;;;;52.50;17.50;;;6.70;99.90;;;;;;5038246;28;21058;-60
2022/12/01 09:04:28;;;;;;;46.43;17.10;;;6.40;99.90;;;;;;5039454;28;20476;-60
2022/12/01 09:06:56;;;;;;;47.53;18.57;;;6.70;99.90;;;;;;5035342;28;20488;-60
2022/12/01 09:09:25;;;;;;;54.23;17.20;;;6.60;99.90;;;;;;5036983;28;20487;-60
2022/12/01 09:11:54;;;;;;;48.57;19.30;;;6.70;99.90;;;;;;5026639;28;20848;-60
2022/12/01 09:14:22;;;;;;;56.60;19.90;;;6.60;99.90;;;;;;5061562;28;20492;-60
2022/12/01 09:16:50;;;;;;;34.03;14.13;;;6.60;99.90;;;;;;5037638;28;20487;-60
2022/12/01 09:19:18;;;;;;;64.83;23.33;;;6.60;99.90;;;;;;5038137;28;20510;-59
2022/12/01 09:21:46;;;;;;;48.63;19.07;;;6.70;99.90;;;;;;5038917;28;20483;-60
2022/12/01 09:24:14;;;;;;;54.00;20.60;;;6.80;99.90;;;;;;5037277;28;20972;-59
2022/12/01 09:26:42;;;;;;;34.63;15.73;;;6.80;99.90;;;;;;5024122;28;20484;-60
2022/12/01 09:29:13;;;;;;;62.60;20.30;;;6.70;99.90;;;;;;5015869;28;20481;-60
2022/12/01 09:31:40;;;;;;;42.77;16.10;;;6.60;99.90;;;;;;5035761;28;20503;-60
2022/12/01 09:34:10;;;;;;;58.80;20.70;;;6.50;99.90;;;;;;5034880;28;20976;-60
2022/12/01 09:36:38;;;;;;;43.43;17.40;;;6.60;99.90;;;;;;5033600;28;20480;-60
2022/12/01 09:39:05;;;;;;;64.67;20.43;;;6.60;99.90;;;;;;5035143;28;20480;-60
2022/12/01 09:41:36;;;;;;;47.00;18.97;;;6.60;99.90;;;;;;5035009;28;20847;-59
2022/12/01 09:44:12;;;;;;;46.87;18.17;;;6.70;99.90;;;;;;5034654;28;20492;-60
2022/12/01 09:46:44;;;;;;;42.30;18.90;;;6.60;99.90;;;;;;5033656;28;20480;-60
2022/12/01 09:49:17;;;;;;;53.30;17.50;;;6.50;99.90;;;;;;5035082;28;20472;-60
2022/12/01 09:51:44;;;;;;;47.37;18.20;;;6.60;99.90;;;;;;5023966;28;20483;-59
2022/12/01 09:54:13;;;;;;;64.23;20.07;;;6.60;99.90;;;;;;5036785;28;20500;-60
2022/12/01 09:56:44;;;;;;;46.97;15.53;;;6.70;99.90;;;;;;5037739;28;20492;-60
2022/12/01 09:59:19;;;;;;;57.63;20.43;;;6.70;99.90;;;;;;5038746;28;20647;-60
2022/12/01 10:01:51;;;;;;;42.57;16.90;;;6.70;99.90;;;;;;5028556;28;20468;-60
2022/12/01 10:04:23;;;;;;;66.63;21.50;;;6.70;99.90;;;;;;5036477;28;20483;-59
2022/12/01 10:06:54;;;;;;;48.00;18.10;;;6.70;99.90;;;;;;5028485;28;20487;-60
2022/12/01 10:09:26;;;;;;;50.83;18.57;;;6.80;99.90;;;;;;5029773;28;20485;-60
2022/12/01 10:11:57;;;;;;;46.43;19.03;;;6.80;99.90;;;;;;5033054;28;20541;-59
2022/12/01 10:14:24;;;;;;;43.00;15.13;;;6.80;99.90;;;;;;5029843;28;20491;-59
2022/12/01 10:17:02;;;;;;;37.07;15.77;;;6.80;99.90;;;;;;5034628;28;21035;-61
2022/12/01 10:19:35;;;;;;;43.33;15.50;;;6.70;99.90;;;;;;5034090;28;20479;-60
2022/12/01 10:22:43;;;;;;;45.97;16.13;;;6.80;99.90;;;;;;5034547;28;20490;-60
2022/12/01 10:25:20;;;;;;;68.77;21.87;;;6.80;99.90;;;;;;4990187;28;20472;-59
2022/12/01 10:27:57;;;;;;;44.73;13.40;;;6.80;99.90;;;;;;5027178;28;20563;-59
2022/12/01 10:30:24;;;;;;;37.10;15.83;;;6.80;99.90;;;;;;5006223;28;20546;-60
2022/12/01 10:32:55;;;;;;;31.80;13.80;;;6.80;99.90;;;;;;5037185;28;20476;-60
2022/12/01 10:35:24;;;;;;;37.00;14.00;;;6.80;99.90;;;;;;5033371;28;20775;-60
2022/12/01 10:37:55;;;;;;;38.60;14.93;;;6.80;99.90;;;;;;5039995;28;20468;-60
2022/12/01 10:40:23;;;;;;;34.13;14.20;;;6.90;99.90;;;;;;5038346;28;20495;-60
2022/12/01 10:42:50;;;;;;;28.87;12.90;;;6.90;99.90;;;;;;5039229;28;20480;-60
2022/12/01 10:45:22;;;;;;;44.70;16.73;;;6.40;99.90;;;;;;5025155;28;20475;-60
2022/12/01 10:48:11;;;;;;;29.63;13.07;;;7.00;99.90;;;;;;5036273;28;20488;-60
2022/12/01 10:50:39;;;;;;;15.80;6.70;;;7.00;99.90;;;;;;5038424;28;21244;-60
2022/12/01 10:53:06;;;;;;;36.50;13.97;;;6.90;99.90;;;;;;5033993;28;20481;-60
2022/12/01 10:55:36;;;;;;;28.67;12.67;;;6.90;99.90;;;;;;5037599;28;20483;-60
2022/12/01 10:58:05;;;;;;;32.77;14.70;;;6.90;99.90;;;;;;5037566;28;20897;-60
2022/12/01 11:00:36;;;;;;;35.33;12.17;;;6.80;99.90;;;;;;5036124;28;20488;-60
2022/12/01 11:03:04;;;;;;;31.20;12.47;;;6.80;99.90;;;;;;5022140;28;20496;-59
2022/12/01 11:05:36;;;;;;;32.70;13.70;;;6.80;99.90;;;;;;5016764;28;21005;-60
2022/12/01 11:08:03;;;;;;;37.67;12.67;;;6.80;99.90;;;;;;5016715;28;20496;-59
2022/12/01 11:10:31;;;;;;;30.57;12.37;;;6.80;99.90;;;;;;5017319;28;20555;-60
2022/12/01 11:13:04;;;;;;;26.63;10.17;;;6.80;99.90;;;;;;5018474;28;20512;-59
2022/12/01 11:15:32;;;;;;;25.67;10.97;;;6.70;99.90;;;;;;5017217;28;20485;-60
2022/12/01 11:18:01;;;;;;;22.17;8.73;;;6.70;99.90;;;;;;5015999;28;20481;-60
2022/12/01 11:20:33;;;;;;;35.13;14.03;;;6.60;99.90;;;;;;5009406;28;20843;-59
2022/12/01 11:23:25;;;;;;;33.10;11.23;;;6.60;99.90;;;;;;5051430;28;20578;-60
2022/12/01 11:26:05;;;;;;;37.63;14.83;;;6.60;99.90;;;;;;5015840;28;20504;-59
2022/12/01 11:28:34;;;;;;;31.07;11.20;;;6.60;99.90;;;;;;5022300;28;20480;-60
2022/12/01 11:31:03;;;;;;;28.57;11.37;;;6.60;99.90;;;;;;5019331;28;20489;-60
2022/12/01 11:33:33;;;;;;;27.77;12.70;;;6.60;99.90;;;;;;5018610;28;20489;-60
2022/12/01 11:36:01;;;;;;;35.67;14.17;;;6.50;99.90;;;;;;5016035;28;20485;-60
2022/12/01 11:38:33;;;;;;;39.20;14.13;;;6.60;99.90;;;;;;5016799;28;20477;-60
2022/12/01 11:41:00;;;;;;;39.53;14.37;;;6.60;99.90;;;;;;5017821;28;20488;-59
2022/12/01 11:43:32;;;;;;;41.60;14.50;;;6.70;99.90;;;;;;5017417;28;20734;-60
2022/12/01 11:46:03;;;;;;;44.83;15.10;;;6.70;99.90;;;;;;5015095;28;20489;-60
2022/12/01 11:48:33;;;;;;;36.60;14.97;;;7.50;99.90;;;;;;5016386;28;20576;-60
2022/12/01 11:51:04;;;;;;;37.47;14.10;;;6.70;99.90;;;;;;5048972;28;20568;-59
2022/12/01 11:53:34;;;;;;;27.00;13.20;;;6.70;99.90;;;;;;5019423;28;20485;-60
2022/12/01 11:56:17;;;;;;;34.57;12.07;;;6.70;99.90;;;;;;5014174;28;20492;-60
2022/12/01 11:58:46;;;;;;;56.50;20.07;;;6.70;99.90;;;;;;5017755;28;20894;-60
2022/12/01 12:01:19;;;;;;;61.87;21.00;;;6.80;99.90;;;;;;5016371;28;20841;-60
2022/12/01 12:03:58;;;;;;;42.73;14.80;;;6.80;99.90;;;;;;5017776;28;20489;-60
2022/12/01 12:06:33;;;;;;;35.40;14.37;;;6.70;99.90;;;;;;5014795;28;20487;-60
2022/12/01 12:09:11;;;;;;;26.70;10.90;;;6.70;99.90;;;;;;5037459;28;20479;-60
2022/12/01 12:11:44;;;;;;;29.07;12.90;;;6.60;99.90;;;;;;5036638;28;20476;-60
2022/12/01 12:14:28;;;;;;;51.70;17.13;;;6.60;99.90;;;;;;5036749;28;20491;-60
2022/12/01 12:17:16;;;;;;;30.63;13.03;;;6.50;99.90;;;;;;5012711;28;20488;-60
2022/12/01 12:20:00;;;;;;;38.93;16.43;;;6.50;99.90;;;;;;5033577;28;22782;-60
2022/12/01 12:22:38;;;;;;;27.07;11.27;;;6.50;99.90;;;;;;5014482;28;20485;-60
2022/12/01 12:25:25;;;;;;;50.23;16.40;;;6.40;99.90;;;;;;5036536;28;20526;-60
2022/12/01 12:28:03;;;;;;;41.97;14.50;;;6.50;99.90;;;;;;5035640;28;20468;-60
2022/12/01 12:30:32;;;;;;;30.50;13.40;;;6.60;99.90;;;;;;5025093;28;20480;-60
2022/12/01 12:33:21;;;;;;;30.97;12.50;;;6.60;99.90;;;;;;5036200;28;20484;-59
2022/12/01 12:35:54;;;;;;;52.00;17.83;;;6.60;99.90;;;;;;5035534;28;20515;-60
2022/12/01 12:38:39;;;;;;;48.63;19.43;;;6.60;99.90;;;;;;5018931;28;20477;-60
2022/12/01 12:41:18;;;;;;;34.83;13.77;;;6.60;99.90;;;;;;5029828;28;20484;-60
2022/12/01 12:43:56;;;;;;;35.50;13.90;;;6.70;99.90;;;;;;5036420;28;21003;-60
2022/12/01 12:46:33;;;;;;;41.97;17.07;;;6.70;99.90;;;;;;5022861;28;20495;-59
2022/12/01 12:49:21;;;;;;;28.20;11.60;;;6.70;99.70;;;;;;5031292;28;20480;-60
2022/12/01 12:51:52;;;;;;;29.27;11.70;;;6.70;99.50;;;;;;5034169;28;20476;-60
2022/12/01 12:54:25;;;;;;;42.67;16.83;;;6.80;99.90;;;;;;5031680;28;20485;-60
2022/12/01 12:56:57;;;;;;;29.80;13.17;;;6.80;99.50;;;;;;5033382;28;20760;-60
2022/12/01 12:59:29;;;;;;;31.47;12.77;;;6.80;99.40;;;;;;5024273;28;20473;-60